Time;durP1;ratioP1;P1;durP2;ratioP2;P2;SDS_P1;SDS_P2;PMS_P1;PMS_P2;Temp;Humidity;BMP_temperature;BMP_pressure;BME280_temperature;BME280_humidity;BME280_pressure;Samples;Min_cycle;Max_cycle;Signal;HPM_P1;HPM_P2
2023/02/09 00:00:24;;;;;;;12.25;7.50;;;1.00;99.90;;;;;;6246839;23;20271;-87
2023/02/09 00:03:03;;;;;;;;;;;;;;;;;;;;;
2023/02/09 00:05:54;;;;;;;12.32;7.53;;;1.00;99.90;;;;;;6247219;23;20207;-86
2023/02/09 00:11:12;;;;;;;10.88;6.25;;;1.10;99.90;;;;;;6243485;22;20212;-86
2023/02/09 00:17:08;;;;;;;13.18;7.68;;;1.20;99.90;;;;;;6337247;22;20169;-87
2023/02/09 00:23:16;;;;;;;11.60;7.03;;;1.20;99.90;;;;;;6344370;22;20170;-87
2023/02/09 00:26:04;;;;;;;;;;;;;;;;;;;;;
2023/02/09 00:29:33;;;;;;;12.65;7.28;;;1.20;99.90;;;;;;6343601;22;20200;-87
2023/02/09 00:32:38;;;;;;;;;;;;;;;;;;;;;
2023/02/09 00:39:12;;;;;;;16.08;6.70;;;1.00;99.90;;;;;;6290444;22;20552;-87
2023/02/09 00:47:45;;;;;;;11.23;7.05;;;0.90;99.90;;;;;;6341861;22;20202;-87
2023/02/09 00:50:16;;;;;;;11.00;6.65;;;0.90;99.90;;;;;;6315236;22;20226;-87
2023/02/09 00:53:05;;;;;;;15.25;7.72;;;0.90;99.90;;;;;;6323184;22;20147;-87
2023/02/09 00:55:39;;;;;;;16.60;8.70;;;0.90;99.90;;;;;;6324989;22;20194;-87
2023/02/09 00:58:37;;;;;;;19.08;7.95;;;0.90;99.90;;;;;;6324466;22;20150;-88
2023/02/09 01:01:42;;;;;;;13.98;7.85;;;0.90;99.90;;;;;;6350339;22;20158;-87
2023/02/09 01:04:36;;;;;;;14.38;8.05;;;0.90;99.90;;;;;;6318821;22;20182;-87
2023/02/09 01:13:12;;;;;;;18.80;9.52;;;0.80;99.90;;;;;;6342611;22;20178;-87
2023/02/09 01:15:53;;;;;;;21.05;9.95;;;0.80;99.90;;;;;;6290001;22;20206;-87
2023/02/09 01:19:17;;;;;;;;;;;;;;;;;;;;;
2023/02/09 01:22:15;;;;;;;;;;;;;;;;;;;;;
2023/02/09 01:24:55;;;;;;;17.85;9.80;;;0.70;99.90;;;;;;6354647;22;20178;-87
2023/02/09 01:27:21;;;;;;;11.27;7.50;;;0.60;99.90;;;;;;6328023;22;20143;-87
2023/02/09 01:30:21;;;;;;;23.50;9.83;;;0.50;99.90;;;;;;6326694;22;20179;-88
2023/02/09 01:33:01;;;;;;;27.90;10.40;;;0.50;99.90;;;;;;6327404;22;20392;-87
2023/02/09 01:35:54;;;;;;;19.25;8.32;;;0.50;99.90;;;;;;6326483;22;20251;-87
2023/02/09 01:38:36;;;;;;;13.95;8.38;;;0.50;99.90;;;;;;6343144;22;20625;-86
2023/02/09 01:41:07;;;;;;;12.57;7.10;;;0.40;99.90;;;;;;6315392;22;20206;-86
2023/02/09 01:44:14;;;;;;;13.75;8.05;;;0.40;99.90;;;;;;6343622;22;20189;-86
2023/02/09 01:46:43;;;;;;;12.20;7.90;;;0.40;99.90;;;;;;6338328;22;20224;-86
2023/02/09 01:49:19;;;;;;;36.92;8.10;;;0.40;99.90;;;;;;6316289;22;20234;-85
2023/02/09 01:52:42;;;;;;;13.82;8.25;;;0.40;99.90;;;;;;6315428;22;20143;-86
2023/02/09 01:55:08;;;;;;;21.80;9.85;;;0.40;99.90;;;;;;6335891;22;20691;-86
2023/02/09 01:57:49;;;;;;;15.45;7.85;;;0.40;99.90;;;;;;6315203;22;20149;-86
2023/02/09 02:00:19;;;;;;;13.57;8.52;;;0.40;99.90;;;;;;6315362;22;20457;-87
2023/02/09 02:03:22;;;;;;;17.02;8.88;;;0.30;99.90;;;;;;6314972;22;20147;-87
2023/02/09 02:06:24;;;;;;;18.70;9.80;;;0.40;99.90;;;;;;6302997;22;20174;-87
2023/02/09 02:09:31;;;;;;;21.30;9.07;;;0.30;99.90;;;;;;6277200;22;20234;-86
2023/02/09 02:12:07;;;;;;;21.35;9.10;;;0.30;99.90;;;;;;6307865;22;20155;-86
2023/02/09 02:14:38;;;;;;;16.25;8.95;;;0.30;99.90;;;;;;6345363;22;20193;-86
2023/02/09 02:17:25;;;;;;;17.52;7.90;;;0.20;99.90;;;;;;6318385;22;20147;-86
2023/02/09 02:20:42;;;;;;;12.90;7.70;;;0.20;99.90;;;;;;6316784;22;20151;-86
2023/02/09 02:23:34;;;;;;;12.15;6.57;;;0.20;99.90;;;;;;6318053;22;20214;-87
2023/02/09 02:26:40;;;;;;;12.20;7.15;;;0.10;99.90;;;;;;6316123;22;20179;-86
2023/02/09 02:30:08;;;;;;;11.82;7.13;;;0.10;99.90;;;;;;6345715;22;20158;-86
2023/02/09 02:32:44;;;;;;;14.50;8.00;;;0.10;99.90;;;;;;6344062;22;20166;-87
2023/02/09 02:35:34;;;;;;;18.80;8.90;;;0.00;99.90;;;;;;6317151;22;20222;-87
2023/02/09 02:38:48;;;;;;;;;;;;;;;;;;;;;
2023/02/09 02:45:00;;;;;;;;;;;;;;;;;;;;;
2023/02/09 02:51:09;;;;;;;12.75;7.95;;;-0.10;99.90;;;;;;6337696;22;20487;-87
2023/02/09 02:53:47;;;;;;;18.88;8.07;;;-0.20;99.90;;;;;;6313503;22;20155;-87
2023/02/09 02:56:29;;;;;;;15.23;8.40;;;-0.20;99.90;;;;;;6345131;22;20167;-87
2023/02/09 02:59:17;;;;;;;16.63;8.30;;;-0.20;99.90;;;;;;6344262;22;20139;-86
2023/02/09 03:02:22;;;;;;;17.42;8.00;;;-0.30;99.90;;;;;;6317851;22;20147;-86
2023/02/09 03:04:57;;;;;;;12.35;8.00;;;-0.30;99.90;;;;;;6317514;22;20177;-86
2023/02/09 03:07:23;;;;;;;12.63;7.25;;;-0.30;99.90;;;;;;6317799;22;20154;-86
2023/02/09 03:09:54;;;;;;;13.52;8.02;;;-0.40;99.90;;;;;;6318429;22;20154;-87
2023/02/09 03:12:49;;;;;;;13.60;8.98;;;-0.40;99.90;;;;;;6317965;22;20150;-87
2023/02/09 03:15:37;;;;;;;10.55;6.75;;;-0.40;99.90;;;;;;6313950;22;20191;-87
2023/02/09 03:18:29;;;;;;;12.93;7.72;;;-0.40;99.90;;;;;;6318487;22;20155;-87
2023/02/09 03:21:28;;;;;;;12.70;7.20;;;-0.40;99.90;;;;;;6318340;22;20513;-86
2023/02/09 03:27:04;;;;;;;15.85;8.20;;;-0.30;99.90;;;;;;6354881;22;20158;-87
2023/02/09 03:29:36;;;;;;;14.05;7.85;;;-0.30;99.90;;;;;;6315795;22;20158;-86
2023/02/09 03:32:05;;;;;;;22.13;7.90;;;-0.30;99.90;;;;;;6315710;22;20173;-87
2023/02/09 03:34:31;;;;;;;13.30;7.63;;;-0.30;99.90;;;;;;6315832;22;20187;-87
2023/02/09 03:36:56;;;;;;;17.13;8.17;;;-0.30;99.90;;;;;;6315570;22;20193;-87
2023/02/09 03:39:38;;;;;;;18.23;8.13;;;-0.30;99.90;;;;;;6315434;22;20355;-86
2023/02/09 03:42:06;;;;;;;23.10;8.05;;;-0.30;99.90;;;;;;6314993;22;20352;-87
2023/02/09 03:44:34;;;;;;;17.55;9.43;;;-0.30;99.90;;;;;;6314528;22;20179;-87
2023/02/09 03:47:06;;;;;;;13.50;8.15;;;-0.30;99.90;;;;;;6314576;22;20171;-86
2023/02/09 03:49:41;;;;;;;14.73;7.70;;;-0.30;99.90;;;;;;6315872;22;20168;-86
2023/02/09 03:52:12;;;;;;;15.88;8.00;;;-0.30;99.90;;;;;;6342445;22;20139;-86
2023/02/09 03:55:16;;;;;;;12.80;8.60;;;-0.40;99.90;;;;;;6314667;22;20194;-86
2023/02/09 03:57:49;;;;;;;13.85;7.70;;;-0.40;99.90;;;;;;6314802;22;20149;-87
2023/02/09 04:00:15;;;;;;;11.23;8.85;;;-0.50;99.90;;;;;;6316244;22;20592;-86
2023/02/09 04:03:09;;;;;;;14.10;8.30;;;-0.50;99.90;;;;;;6315283;22;20154;-86
2023/02/09 04:05:46;;;;;;;15.98;7.93;;;-0.50;99.90;;;;;;6314533;22;20217;-86
2023/02/09 04:08:18;;;;;;;14.55;8.27;;;-0.50;99.90;;;;;;6314977;22;20538;-85
2023/02/09 04:10:44;;;;;;;17.85;8.30;;;-0.50;99.90;;;;;;6315041;22;20159;-86
2023/02/09 04:15:57;;;;;;;18.88;8.82;;;-0.50;99.90;;;;;;6345938;22;20716;-87
2023/02/09 04:18:27;;;;;;;13.48;8.85;;;-0.50;99.90;;;;;;6317034;22;20150;-86
2023/02/09 04:20:55;;;;;;;19.85;10.60;;;-0.50;99.90;;;;;;6317685;22;20479;-86
2023/02/09 04:23:39;;;;;;;25.63;11.18;;;-0.50;99.90;;;;;;6317959;22;20155;-86
2023/02/09 04:26:31;;;;;;;28.65;15.15;;;-0.50;99.90;;;;;;6318709;22;20175;-86
2023/02/09 04:29:24;;;;;;;25.60;13.55;;;-0.50;99.90;;;;;;6319920;22;20151;-86
2023/02/09 04:31:59;;;;;;;34.97;16.25;;;-0.60;99.90;;;;;;6317856;22;20250;-86
2023/02/09 04:34:50;;;;;;;41.90;17.27;;;-0.60;99.90;;;;;;6319200;22;20181;-86
2023/02/09 04:37:39;;;;;;;57.58;23.92;;;-0.60;99.90;;;;;;6307391;22;20155;-86
2023/02/09 04:40:08;;;;;;;58.97;21.50;;;-0.60;99.90;;;;;;6319479;22;20135;-86
2023/02/09 04:42:57;;;;;;;50.50;20.05;;;-0.60;99.90;;;;;;6318025;22;20151;-87
2023/02/09 04:45:23;;;;;;;31.80;14.68;;;-0.60;99.90;;;;;;6318474;22;20210;-87
2023/02/09 04:47:58;;;;;;;78.30;30.27;;;-0.60;99.90;;;;;;6316691;22;20654;-87
2023/02/09 04:50:39;;;;;;;;;;;;;;;;;;;;;
2023/02/09 04:53:23;;;;;;;88.22;34.50;;;-0.60;99.90;;;;;;6346766;22;20151;-86
2023/02/09 04:55:52;;;;;;;117.53;41.45;;;-0.60;99.90;;;;;;6316752;22;20192;-87
2023/02/09 05:01:25;;;;;;;82.20;33.00;;;-0.60;99.90;;;;;;6345086;22;20515;-87
2023/02/09 05:03:57;;;;;;;38.40;17.55;;;-0.70;99.90;;;;;;6315917;22;20158;-85
2023/02/09 05:06:28;;;;;;;49.88;21.13;;;-0.70;99.90;;;;;;6344155;22;20132;-86
2023/02/09 05:08:53;;;;;;;30.60;14.45;;;-0.70;99.90;;;;;;6318144;22;20151;-87
2023/02/09 05:11:31;;;;;;;32.00;15.93;;;-0.70;99.90;;;;;;6318723;22;20455;-87
2023/02/09 05:14:26;;;;;;;50.95;23.08;;;-0.70;99.90;;;;;;6319345;22;20347;-86
2023/02/09 05:16:54;;;;;;;57.72;22.77;;;-0.70;99.90;;;;;;6317048;22;20155;-86
2023/02/09 05:19:54;;;;;;;;;;;;;;;;;;;;;
2023/02/09 05:22:22;;;;;;;21.80;11.90;;;-0.80;99.90;;;;;;6343763;22;20234;-86
2023/02/09 05:24:48;;;;;;;22.10;11.25;;;-0.80;99.90;;;;;;6315739;22;20511;-86
2023/02/09 05:27:13;;;;;;;18.20;10.17;;;-0.80;99.90;;;;;;6315176;22;20163;-86
2023/02/09 05:29:39;;;;;;;65.60;21.43;;;-0.80;99.90;;;;;;6316599;22;20162;-86
2023/02/09 05:32:04;;;;;;;130.80;46.13;;;-0.90;99.90;;;;;;6343645;22;20150;-86
2023/02/09 05:34:30;;;;;;;77.97;31.63;;;-0.80;99.90;;;;;;6342781;22;20252;-87
2023/02/09 05:36:56;;;;;;;69.07;29.10;;;-0.80;99.90;;;;;;6343664;22;20611;-86
2023/02/09 05:39:24;;;;;;;85.63;31.90;;;-0.90;99.90;;;;;;6341807;22;20143;-87
2023/02/09 05:44:36;;;;;;;63.83;24.52;;;-0.90;99.90;;;;;;6344054;22;20186;-86
2023/02/09 05:47:01;;;;;;;39.57;16.50;;;-0.90;99.90;;;;;;6315105;22;20170;-86
2023/02/09 05:49:27;;;;;;;35.67;14.53;;;-0.90;99.90;;;;;;6316179;22;20174;-86
2023/02/09 05:51:53;;;;;;;39.67;17.13;;;-1.00;99.90;;;;;;6342806;22;20154;-86
2023/02/09 05:54:18;;;;;;;35.43;15.10;;;-1.00;99.90;;;;;;6314634;22;20194;-87
2023/02/09 05:56:44;;;;;;;36.97;15.87;;;-1.10;99.90;;;;;;6315873;22;20154;-86
2023/02/09 05:59:09;;;;;;;43.40;19.57;;;-1.10;99.90;;;;;;6344065;22;20661;-86
2023/02/09 06:01:41;;;;;;;33.97;16.60;;;-1.10;99.90;;;;;;6343151;22;20243;-87
2023/02/09 06:04:07;;;;;;;24.58;11.60;;;-1.10;99.90;;;;;;6343478;22;20154;-86
2023/02/09 06:06:36;;;;;;;29.20;14.05;;;-1.20;1.00;;;;;;6315768;22;20211;-86
2023/02/09 06:09:02;;;;;;;82.50;34.90;;;-1.20;1.00;;;;;;6343302;22;20143;-86
2023/02/09 06:11:28;;;;;;;45.30;21.08;;;-1.20;1.00;;;;;;6315422;22;20205;-86
2023/02/09 06:13:53;;;;;;;14.77;9.43;;;-1.20;1.00;;;;;;6343644;22;20144;-86
2023/02/09 06:16:19;;;;;;;17.67;10.43;;;-1.20;1.00;;;;;;6316056;22;20143;-85
2023/02/09 06:18:44;;;;;;;23.63;10.47;;;-1.20;1.00;;;;;;6315538;22;20163;-87
2023/02/09 06:21:11;;;;;;;15.73;10.83;;;-1.20;1.00;;;;;;6344078;22;20143;-87
2023/02/09 06:23:37;;;;;;;20.27;10.43;;;-1.20;99.90;;;;;;6316031;22;20155;-87
2023/02/09 06:26:08;;;;;;;20.85;9.55;;;-1.20;99.90;;;;;;6343901;22;20163;-87
2023/02/09 06:28:37;;;;;;;19.63;10.75;;;-1.20;99.90;;;;;;6343065;22;20155;-87
2023/02/09 06:31:20;;;;;;;19.70;10.35;;;-1.20;99.90;;;;;;6316449;22;20155;-86
2023/02/09 06:33:46;;;;;;;19.17;10.60;;;-1.30;1.00;;;;;;6316714;22;20470;-86
2023/02/09 06:36:20;;;;;;;20.83;10.97;;;-1.30;1.00;;;;;;6315756;22;20235;-87
2023/02/09 06:38:46;;;;;;;22.52;11.52;;;-1.40;1.00;;;;;;6316237;22;20249;-86
2023/02/09 06:41:11;;;;;;;58.53;25.57;;;-1.40;1.00;;;;;;6316298;22;20597;-86
2023/02/09 06:43:37;;;;;;;37.00;17.07;;;-1.40;1.00;;;;;;6343994;22;20899;-87
2023/02/09 06:46:07;;;;;;;25.40;11.87;;;-1.30;1.00;;;;;;6315056;22;20200;-87
2023/02/09 06:48:33;;;;;;;30.17;12.73;;;-1.30;1.00;;;;;;6315175;22;20165;-87
2023/02/09 06:50:59;;;;;;;58.07;24.07;;;-1.20;1.00;;;;;;6343736;22;20525;-87
2023/02/09 06:53:27;;;;;;;44.77;20.40;;;-1.20;1.00;;;;;;6317729;22;20251;-87
2023/02/09 06:55:58;;;;;;;28.58;11.43;;;-1.10;1.00;;;;;;6318279;22;20248;-87
2023/02/09 06:58:24;;;;;;;31.52;16.48;;;-1.00;1.00;;;;;;6344768;22;20131;-87
2023/02/09 07:00:49;;;;;;;25.20;14.33;;;-0.90;1.00;;;;;;6317571;22;20163;-85
2023/02/09 07:03:15;;;;;;;23.27;12.53;;;-0.80;1.00;;;;;;6344356;22;20151;-85
2023/02/09 07:05:40;;;;;;;19.70;11.50;;;-0.60;1.00;;;;;;6341240;22;20267;-85
2023/02/09 07:08:06;;;;;;;82.23;32.60;;;-0.50;1.00;;;;;;6342699;22;20147;-85
2023/02/09 07:10:31;;;;;;;34.63;17.43;;;-0.30;1.00;;;;;;6312911;22;20250;-84
2023/02/09 07:12:57;;;;;;;30.13;14.03;;;-0.20;1.00;;;;;;6341858;22;20155;-84
2023/02/09 07:15:23;;;;;;;23.70;12.20;;;0.00;1.00;;;;;;6313724;22;20684;-86
2023/02/09 07:17:51;;;;;;;62.00;26.97;;;0.10;99.90;;;;;;6338901;22;20858;-85
2023/02/09 07:20:17;;;;;;;42.58;19.95;;;0.20;99.90;;;;;;6340759;22;20151;-84
2023/02/09 07:22:45;;;;;;;36.67;16.90;;;0.40;99.90;;;;;;6339632;22;20752;-85
2023/02/09 07:25:10;;;;;;;36.45;18.45;;;0.50;99.90;;;;;;6340425;22;20189;-83
2023/02/09 07:27:36;;;;;;;40.50;19.90;;;0.70;99.90;;;;;;6337939;22;20175;-85
2023/02/09 07:30:01;;;;;;;32.63;16.00;;;0.90;99.90;;;;;;6338674;22;20229;-86
2023/02/09 07:32:27;;;;;;;24.90;15.30;;;1.10;99.90;;;;;;6337153;22;20151;-87
2023/02/09 07:34:53;;;;;;;17.43;12.03;;;1.30;99.90;;;;;;6309140;22;20194;-87
2023/02/09 07:37:50;;;;;;;21.83;10.50;;;2.70;99.90;;;;;;6337016;22;20621;-88
2023/02/09 07:40:15;;;;;;;18.17;9.43;;;4.80;99.90;;;;;;6308655;22;20158;-88
2023/02/09 07:42:41;;;;;;;19.60;11.87;;;8.10;99.90;;;;;;6308522;22;20495;-88
2023/02/09 07:45:07;;;;;;;20.57;12.07;;;10.40;99.90;;;;;;6337483;22;20179;-89
2023/02/09 07:48:05;;;;;;;19.53;13.57;;;12.30;99.90;;;;;;6338127;22;20157;-89
2023/02/09 07:50:31;;;;;;;18.30;12.10;;;13.80;99.90;;;;;;6337932;22;20818;-90
2023/02/09 07:52:57;;;;;;;12.97;10.40;;;14.80;99.90;;;;;;6310409;22;20489;-90
2023/02/09 07:55:45;;;;;;;15.67;10.87;;;15.20;99.90;;;;;;6309711;22;20213;-89
2023/02/09 07:58:35;;;;;;;14.30;11.53;;;15.20;99.90;;;;;;6310645;22;20228;-88
2023/02/09 08:02:00;;;;;;;16.47;12.27;;;15.90;99.90;;;;;;6309048;22;20383;-88
2023/02/09 08:04:25;;;;;;;17.87;13.93;;;16.10;99.90;;;;;;6276034;22;20418;-87
2023/02/09 08:06:52;;;;;;;21.87;14.37;;;16.00;99.90;;;;;;6335380;22;20791;-89
2023/02/09 08:09:45;;;;;;;19.23;14.73;;;16.00;99.90;;;;;;6336927;22;20232;-89
2023/02/09 08:12:11;;;;;;;18.97;15.37;;;16.20;99.90;;;;;;6308133;22;20372;-88
2023/02/09 08:18:55;;;;;;;19.63;13.90;;;17.50;99.90;;;;;;6285328;22;20615;-88
2023/02/09 08:21:21;;;;;;;19.90;13.13;;;17.50;99.90;;;;;;6253014;22;20436;-87
2023/02/09 08:23:51;;;;;;;16.80;12.80;;;17.60;99.90;;;;;;6308157;22;20388;-87
2023/02/09 08:26:17;;;;;;;15.43;11.13;;;17.20;99.90;;;;;;6336436;22;20363;-88
2023/02/09 10:47:32;;;;;;;;;;;;;;;;;;;;;
2023/02/09 10:50:12;;;;;;;16.00;11.77;;;15.40;99.90;;;;;;6372132;22;20396;-84
2023/02/09 10:53:01;;;;;;;13.17;10.93;;;15.30;99.90;;;;;;6374256;22;20348;-84
2023/02/09 10:55:40;;;;;;;16.30;11.30;;;15.10;99.90;;;;;;6372088;22;20455;-84
2023/02/09 10:58:33;;;;;;;16.17;11.50;;;14.80;99.90;;;;;;6374732;22;20365;-85
2023/02/09 11:01:08;;;;;;;14.87;10.93;;;14.70;99.90;;;;;;6375536;22;20368;-84
2023/02/09 11:03:45;;;;;;;15.50;11.20;;;14.60;99.90;;;;;;6376230;22;20407;-86
2023/02/09 11:06:17;;;;;;;18.47;11.27;;;14.60;99.90;;;;;;6370563;22;20392;-85
2023/02/09 11:08:53;;;;;;;21.13;11.37;;;14.70;99.90;;;;;;6375301;22;20711;-84
2023/02/09 11:11:34;;;;;;;19.13;12.20;;;14.90;99.90;;;;;;6372618;22;20698;-84
2023/02/09 11:14:09;;;;;;;16.57;11.10;;;15.60;99.90;;;;;;6371921;22;20399;-84
2023/02/09 12:18:00;;;;;;;;;;;;;;;;;;;;;
2023/02/09 12:21:19;;;;;;;;;;;;;;;;;;;;;
2023/02/09 12:24:49;;;;;;;;;;;;;;;;;;;;;
2023/02/09 12:27:56;;;;;;;11.83;10.00;;;19.70;99.90;;;;;;6381925;22;20469;-87
2023/02/09 12:34:43;;;;;;;10.87;9.60;;;19.50;99.90;;;;;;6403072;22;20370;-86
2023/02/09 12:48:53;;;;;;;13.40;10.40;;;18.60;99.90;;;;;;6172234;23;20410;-85
2023/02/09 12:51:49;;;;;;;11.40;9.80;;;18.40;99.90;;;;;;6216573;23;20386;-87
2023/02/09 12:54:42;;;;;;;10.10;8.90;;;18.10;99.90;;;;;;6216011;23;20842;-89
2023/02/09 12:57:19;;;;;;;12.63;9.63;;;18.10;99.90;;;;;;6372190;22;20395;-86
2023/02/09 13:00:11;;;;;;;12.97;9.47;;;18.30;99.90;;;;;;6374906;22;20875;-89
2023/02/09 13:02:54;;;;;;;10.77;9.70;;;18.40;99.90;;;;;;6404131;22;20365;-87
2023/02/09 13:05:57;;;;;;;15.57;9.60;;;18.50;99.90;;;;;;6377077;22;20417;-86
2023/02/09 13:08:45;;;;;;;;;;;;;;;;;;;;;
2023/02/09 13:11:41;;;;;;;11.60;9.63;;;18.50;99.90;;;;;;6404516;22;20436;-86
2023/02/09 13:14:13;;;;;;;11.50;9.63;;;18.60;99.90;;;;;;6340310;22;20468;-86
2023/02/09 13:16:46;;;;;;;13.50;9.50;;;18.50;99.90;;;;;;6376888;22;20448;-86
2023/02/09 13:19:39;;;;;;;15.03;10.10;;;18.40;99.90;;;;;;6406601;22;20355;-87
2023/02/09 13:22:35;;;;;;;13.73;10.73;;;17.90;99.00;;;;;;6380841;22;20525;-86
2023/02/09 13:25:28;;;;;;;20.00;10.20;;;17.50;97.10;;;;;;6378337;22;20397;-86
2023/02/09 13:28:18;;;;;;;13.23;10.63;;;17.00;95.90;;;;;;6409682;22;20401;-85
2023/02/09 13:30:47;;;;;;;12.60;10.40;;;16.60;94.60;;;;;;6381552;22;20374;-86
2023/02/09 13:33:49;;;;;;;11.70;9.80;;;16.30;94.80;;;;;;6409347;22;20406;-87
2023/02/09 13:36:31;;;;;;;14.43;11.47;;;16.10;93.30;;;;;;6406070;22;20413;-86
2023/02/09 13:39:13;;;;;;;14.73;10.43;;;16.10;93.70;;;;;;6404419;22;20840;-86
2023/02/09 13:41:49;;;;;;;17.17;11.30;;;16.20;94.20;;;;;;6408460;22;20447;-86
2023/02/09 13:45:13;;;;;;;13.50;10.57;;;16.50;94.90;;;;;;6381057;22;20441;-88
2023/02/09 13:48:05;;;;;;;13.70;10.90;;;16.70;95.50;;;;;;6404280;22;20383;-86
2023/02/09 13:53:20;;;;;;;19.97;11.20;;;16.60;95.30;;;;;;6413689;22;20357;-86
2023/02/09 13:59:25;;;;;;;16.57;12.07;;;15.90;92.90;;;;;;6404766;22;20895;-86
2023/02/09 14:09:25;;;;;;;;;;;;;;;;;;;;;
2023/02/09 14:12:49;;;;;;;18.67;11.70;;;14.50;90.10;;;;;;6399289;22;20395;-86
2023/02/09 14:19:32;;;;;;;18.80;12.23;;;14.30;91.30;;;;;;6408809;22;20378;-86
2023/02/09 14:22:23;;;;;;;16.67;11.03;;;14.30;91.10;;;;;;6245891;23;20478;-86
2023/02/09 14:25:33;;;;;;;15.73;11.57;;;14.20;91.10;;;;;;6262687;22;20459;-86
2023/02/09 14:30:38;;;;;;;25.50;13.23;;;14.00;91.00;;;;;;6361783;22;20451;-85
2023/02/09 14:33:23;;;;;;;17.33;13.30;;;13.80;91.00;;;;;;6338246;22;20379;-85
2023/02/09 14:36:37;;;;;;;16.10;12.77;;;13.70;90.30;;;;;;6339860;22;20911;-85
2023/02/09 14:39:30;;;;;;;16.70;12.17;;;13.50;90.20;;;;;;6291674;22;20401;-84
2023/02/09 14:42:01;;;;;;;20.40;12.60;;;13.40;90.00;;;;;;6367861;22;20410;-85
2023/02/09 14:44:28;;;;;;;19.70;11.57;;;13.20;90.10;;;;;;6338845;22;20377;-85
2023/02/09 14:47:10;;;;;;;20.83;13.10;;;13.10;90.00;;;;;;6369741;22;20659;-85
2023/02/09 14:49:41;;;;;;;21.13;14.17;;;13.00;90.10;;;;;;6369344;22;20510;-85
2023/02/09 14:52:22;;;;;;;21.37;13.07;;;12.80;89.40;;;;;;6342648;22;20372;-85
2023/02/09 14:54:50;;;;;;;16.73;11.33;;;12.70;89.40;;;;;;6342263;22;20408;-86
2023/02/09 14:57:20;;;;;;;23.40;12.13;;;12.50;88.90;;;;;;6342214;22;20415;-87
2023/02/09 14:59:58;;;;;;;18.93;12.17;;;12.40;88.50;;;;;;6370556;22;20463;-87
2023/02/09 15:02:47;;;;;;;20.20;12.00;;;12.20;88.90;;;;;;6341180;22;20373;-87
2023/02/09 15:05:12;;;;;;;21.13;13.07;;;12.10;88.50;;;;;;6368707;22;20372;-87
2023/02/09 15:07:46;;;;;;;21.70;12.13;;;11.90;88.10;;;;;;6368377;22;20375;-87
2023/02/09 15:10:34;;;;;;;18.17;12.67;;;11.70;88.20;;;;;;6368849;22;20165;-87
2023/02/09 15:13:37;;;;;;;18.97;12.63;;;11.60;88.70;;;;;;6373678;22;20696;-87
2023/02/09 15:16:09;;;;;;;19.13;12.20;;;11.50;87.30;;;;;;6370055;22;20435;-86
2023/02/09 15:18:46;;;;;;;26.13;12.90;;;11.40;88.10;;;;;;6368521;22;20428;-85
2023/02/09 15:21:14;;;;;;;18.90;11.80;;;11.30;89.00;;;;;;6369896;22;20336;-85
2023/02/09 15:23:46;;;;;;;17.17;12.90;;;11.30;89.50;;;;;;6368442;22;20407;-85
2023/02/09 15:26:25;;;;;;;16.07;12.10;;;11.20;90.00;;;;;;6369655;22;20356;-85
2023/02/09 15:28:56;;;;;;;21.67;12.57;;;11.00;89.50;;;;;;6368988;22;20411;-85
2023/02/09 15:31:27;;;;;;;17.83;12.33;;;10.90;90.00;;;;;;6342715;22;20438;-87
2023/02/09 15:34:13;;;;;;;21.63;12.63;;;10.80;90.10;;;;;;6369193;22;20666;-87
2023/02/09 15:36:58;;;;;;;19.60;12.47;;;10.70;90.20;;;;;;6341620;22;20649;-86
2023/02/09 15:39:35;;;;;;;19.37;12.20;;;10.50;90.00;;;;;;6346229;22;20388;-86
2023/02/09 15:48:55;;;;;;;17.73;13.17;;;10.00;90.00;;;;;;6322258;22;20395;-87
2023/02/09 15:52:06;;;;;;;24.27;13.40;;;9.90;90.10;;;;;;6344027;22;20380;-84
2023/02/09 15:54:45;;;;;;;;;;;;;;;;;;;;;
2023/02/09 16:04:41;;;;;;;;;;;;;;;;;;;;;
2023/02/09 16:07:25;;;;;;;22.37;13.77;;;9.30;91.50;;;;;;6093732;23;20459;-86
2023/02/09 16:10:55;;;;;;;20.80;13.83;;;9.20;91.60;;;;;;6210686;23;20393;-86
2023/02/09 16:13:56;;;;;;;19.65;13.48;;;9.10;92.40;;;;;;6325500;22;20430;-86
2023/02/09 16:16:38;;;;;;;25.17;14.00;;;9.00;92.30;;;;;;6341745;22;20184;-86
2023/02/09 16:19:24;;;;;;;24.05;15.88;;;8.90;92.80;;;;;;6369161;22;20209;-85
2023/02/09 16:22:05;;;;;;;19.45;13.93;;;8.80;93.10;;;;;;6369301;22;20131;-85
2023/02/09 16:24:49;;;;;;;25.45;14.43;;;8.70;94.10;;;;;;6342855;22;20150;-85
2023/02/09 16:27:29;;;;;;;23.77;15.07;;;8.60;93.40;;;;;;6372647;22;20170;-85
2023/02/09 16:30:16;;;;;;;20.80;13.77;;;8.50;93.80;;;;;;6369902;22;20438;-85
2023/02/09 16:32:48;;;;;;;21.35;14.48;;;8.40;93.90;;;;;;6370141;22;20127;-85
2023/02/09 16:35:17;;;;;;;27.58;13.10;;;8.30;94.00;;;;;;6371208;22;20167;-85
2023/02/09 16:40:33;;;;;;;24.80;14.48;;;8.10;94.50;;;;;;6370227;22;20154;-85
2023/02/09 16:43:05;;;;;;;26.93;15.83;;;8.00;94.60;;;;;;6368386;22;20154;-85
2023/02/09 16:45:35;;;;;;;21.98;13.70;;;8.00;94.70;;;;;;6341630;22;20564;-85
2023/02/09 16:48:01;;;;;;;24.05;14.30;;;7.90;95.20;;;;;;6341556;22;20143;-85
2023/02/09 16:50:40;;;;;;;24.97;16.17;;;7.80;95.40;;;;;;6343474;22;20553;-85
2023/02/09 16:53:34;;;;;;;30.75;19.50;;;7.70;95.80;;;;;;6371380;22;20409;-86
2023/02/09 16:56:08;;;;;;;21.13;15.30;;;7.60;96.00;;;;;;6342408;22;20180;-84
2023/02/09 16:58:44;;;;;;;24.55;15.55;;;7.50;96.20;;;;;;6344910;22;20174;-85
2023/02/09 17:01:22;;;;;;;23.17;15.30;;;7.40;96.50;;;;;;6342091;22;20184;-86
2023/02/09 17:04:01;;;;;;;23.98;15.15;;;7.30;96.80;;;;;;6344782;22;20150;-86
2023/02/09 17:07:24;;;;;;;25.65;16.13;;;7.20;97.40;;;;;;6346454;22;20150;-85
2023/02/09 17:10:34;;;;;;;33.45;22.45;;;7.10;97.70;;;;;;6356936;22;20317;-85
2023/02/09 17:33:22;;;;;;;31.08;20.30;;;6.90;99.90;;;;;;6296817;22;20187;-85
2023/02/09 17:35:51;;;;;;;36.85;24.13;;;6.80;99.90;;;;;;6283684;22;20210;-83
2023/02/09 17:38:34;;;;;;;28.88;17.60;;;6.80;99.90;;;;;;6281940;22;20630;-86
2023/02/09 17:41:13;;;;;;;33.95;21.05;;;6.70;99.90;;;;;;6309013;22;20140;-86
2023/02/09 17:43:48;;;;;;;37.25;22.10;;;6.60;99.90;;;;;;6311498;22;20140;-85
2023/02/09 17:46:33;;;;;;;29.23;19.75;;;6.50;99.90;;;;;;6314052;22;20611;-84
2023/02/09 17:49:21;;;;;;;30.10;17.98;;;6.40;99.90;;;;;;6314220;22;20197;-84
2023/02/09 17:52:36;;;;;;;;;;;;;;;;;;;;;
2023/02/09 17:54:59;;;;;;;26.70;14.63;;;6.10;99.90;;;;;;6311005;22;20493;-84
2023/02/09 18:01:26;;;;;;;29.95;17.45;;;6.00;99.90;;;;;;6303640;22;20152;-85
2023/02/09 18:04:41;;;;;;;;;;;;;;;;;;;;;
2023/02/09 18:11:25;;;;;;;24.52;15.73;;;6.10;99.90;;;;;;6353420;22;20282;-84
2023/02/09 18:13:59;;;;;;;28.67;17.77;;;6.10;99.90;;;;;;6340070;22;20150;-84
2023/02/09 18:16:41;;;;;;;25.60;16.35;;;6.10;99.90;;;;;;6347498;22;20207;-84
2023/02/09 18:30:57;;;;;;;28.80;18.05;;;6.20;99.90;;;;;;6303244;22;20737;-86
2023/02/09 18:48:13;;;;;;;31.33;19.95;;;6.20;99.90;;;;;;6362271;22;20205;-86
2023/02/09 18:51:11;;;;;;;33.78;20.60;;;6.20;99.90;;;;;;6342369;22;20131;-85
2023/02/09 18:53:51;;;;;;;35.08;20.80;;;6.20;99.90;;;;;;6316246;22;20159;-85
2023/02/09 18:56:41;;;;;;;30.55;18.80;;;6.20;99.90;;;;;;6343899;22;20219;-85
2023/02/09 18:59:19;;;;;;;;;;;;;;;;;;;;;
2023/02/09 19:01:51;;;;;;;32.53;21.30;;;6.20;99.90;;;;;;6344404;22;20162;-85
2023/02/09 19:04:45;;;;;;;31.00;19.58;;;6.20;99.90;;;;;;6316187;22;20621;-85
2023/02/09 19:32:11;;;;;;;33.92;21.52;;;6.30;99.90;;;;;;6386318;22;20203;-85
2023/02/09 19:35:01;;;;;;;37.60;21.98;;;6.30;99.90;;;;;;6346378;22;20158;-85
2023/02/09 19:42:06;;;;;;;;;;;;;;;;;;;;;
2023/02/09 20:25:19;;;;;;;39.65;22.30;;;6.30;99.90;;;;;;6182640;23;20583;-86
2023/02/09 20:54:26;;;;;;;39.38;25.48;;;6.40;99.90;;;;;;6353412;22;20220;-84
2023/02/09 21:04:07;;;;;;;;;;;;;;;;;;;;;
2023/02/09 21:07:02;;;;;;;;;;;;;;;;;;;;;
2023/02/09 21:10:00;;;;;;;37.30;22.40;;;6.30;99.90;;;;;;6339941;22;20293;-84
2023/02/09 21:16:20;;;;;;;37.60;24.88;;;6.30;99.90;;;;;;6275725;22;20191;-85
2023/02/09 21:34:17;;;;;;;41.05;26.35;;;6.20;99.90;;;;;;6372295;22;20181;-86
2023/02/09 21:36:43;;;;;;;41.33;23.30;;;6.30;99.90;;;;;;6374546;22;20646;-86
2023/02/09 21:39:28;;;;;;;38.40;24.83;;;6.20;99.90;;;;;;6387437;22;20162;-85
2023/02/09 21:45:26;;;;;;;;;;;;;;;;;;;;;
2023/02/09 21:48:08;;;;;;;43.10;25.95;;;6.20;99.90;;;;;;6404496;22;20209;-85
2023/02/09 21:51:18;;;;;;;;;;;;;;;;;;;;;
2023/02/09 22:00:08;;;;;;;39.95;24.70;;;6.10;99.90;;;;;;6246027;23;20659;-84
2023/02/09 22:03:42;;;;;;;;;;;;;;;;;;;;;
2023/02/09 22:06:06;;;;;;;46.55;29.02;;;6.10;99.90;;;;;;6402140;22;20198;-85
2023/02/09 22:08:49;;;;;;;41.75;25.55;;;6.10;99.90;;;;;;6377960;22;20261;-85
2023/02/09 22:15:04;;;;;;;41.22;26.15;;;6.10;99.90;;;;;;6385340;22;20150;-85
2023/02/09 22:22:38;;;;;;;;;;;;;;;;;;;;;
2023/02/09 22:25:02;;;;;;;;;;;;;;;;;;;;;
2023/02/09 22:28:05;;;;;;;43.08;26.65;;;6.10;99.90;;;;;;6312390;22;20179;-85
2023/02/09 22:41:43;;;;;;;;;;;;;;;;;;;;;
2023/02/09 22:50:54;;;;;;;42.45;25.58;;;6.00;99.90;;;;;;6396936;22;20242;-83
2023/02/09 22:53:59;;;;;;;;;;;;;;;;;;;;;